Time;durP1;ratioP1;P1;durP2;ratioP2;P2;SDS_P1;SDS_P2;PMS_P1;PMS_P2;Temp;Humidity;BMP_temperature;BMP_pressure;BME280_temperature;BME280_humidity;BME280_pressure;Samples;Min_cycle;Max_cycle;Signal;HPM_P1;HPM_P2
2023/03/15 00:02:08;;;;;;;0.20;0.20;;;;;;;;;;4819538;29;20058;-78
2023/03/15 00:04:37;;;;;;;0.20;0.20;;;;;;;;;;4820386;29;20050;-78
2023/03/15 00:07:03;;;;;;;0.20;0.20;;;;;;;;;;4835349;29;20057;-78
2023/03/15 00:09:29;;;;;;;0.20;0.20;;;;;;;;;;4836570;29;20515;-77
2023/03/15 00:11:55;;;;;;;0.20;0.20;;;;;;;;;;4837593;29;20081;-77
2023/03/15 00:14:22;;;;;;;0.20;0.20;;;;;;;;;;4821946;29;20077;-78
2023/03/15 00:16:48;;;;;;;0.20;0.20;;;;;;;;;;4837011;29;20106;-77
2023/03/15 00:19:14;;;;;;;0.20;0.20;;;;;;;;;;4822128;29;20499;-77
2023/03/15 00:21:42;;;;;;;0.20;0.20;;;;;;;;;;4823472;29;20129;-77
2023/03/15 00:24:09;;;;;;;0.20;0.20;;;;;;;;;;4821043;29;20057;-77
2023/03/15 00:26:35;;;;;;;0.20;0.20;;;;;;;;;;4838493;29;20150;-77
2023/03/15 00:29:01;;;;;;;0.20;0.20;;;;;;;;;;4825550;29;20080;-77
2023/03/15 00:31:27;;;;;;;0.10;0.10;;;;;;;;;;4840965;29;20057;-77
2023/03/15 00:33:53;;;;;;;0.20;0.20;;;;;;;;;;4846709;29;20124;-77
2023/03/15 00:36:23;;;;;;;0.13;0.13;;;;;;;;;;4845462;29;20520;-77
2023/03/15 00:38:49;;;;;;;0.20;0.20;;;;;;;;;;4839055;29;20137;-76
2023/03/15 00:41:17;;;;;;;0.20;0.20;;;;;;;;;;4825290;29;20081;-77
2023/03/15 00:43:46;;;;;;;0.20;0.20;;;;;;;;;;4830078;29;20049;-77
2023/03/15 00:46:13;;;;;;;0.20;0.20;;;;;;;;;;4844185;29;20534;-77
2023/03/15 00:48:39;;;;;;;0.20;0.20;;;;;;;;;;4825520;29;20091;-77
2023/03/15 00:51:09;;;;;;;0.20;0.20;;;;;;;;;;4821243;29;20415;-77
2023/03/15 00:53:36;;;;;;;0.20;0.20;;;;;;;;;;4836692;29;20054;-77
2023/03/15 00:56:04;;;;;;;0.20;0.20;;;;;;;;;;4839338;29;21469;-77
2023/03/15 00:58:30;;;;;;;0.17;0.17;;;;;;;;;;4820953;29;20419;-78
2023/03/15 01:00:56;;;;;;;0.20;0.20;;;;;;;;;;4859436;23;20486;-77
2023/03/15 01:03:22;;;;;;;0.20;0.20;;;;;;;;;;4853972;29;20132;-78
2023/03/15 01:05:48;;;;;;;0.20;0.20;;;;;;;;;;4846496;29;20521;-77
2023/03/15 01:08:15;;;;;;;0.20;0.20;;;;;;;;;;4841540;23;20141;-77
2023/03/15 01:10:41;;;;;;;0.20;0.20;;;;;;;;;;4819151;23;20063;-77
2023/03/15 01:13:08;;;;;;;0.20;0.20;;;;;;;;;;4818778;29;20061;-77
2023/03/15 01:15:34;;;;;;;0.20;0.20;;;;;;;;;;4808054;29;20054;-78
2023/03/15 01:18:00;;;;;;;0.20;0.20;;;;;;;;;;4822254;29;20053;-77
2023/03/15 01:20:28;;;;;;;0.20;0.20;;;;;;;;;;4818081;29;20057;-78
2023/03/15 01:22:54;;;;;;;0.20;0.20;;;;;;;;;;4841082;29;20050;-77
2023/03/15 01:25:21;;;;;;;0.20;0.20;;;;;;;;;;4829378;29;20051;-78
2023/03/15 01:27:47;;;;;;;0.20;0.20;;;;;;;;;;4819297;29;20128;-77
2023/03/15 01:30:13;;;;;;;0.20;0.20;;;;;;;;;;4806661;29;20043;-77
2023/03/15 01:32:39;;;;;;;0.20;0.20;;;;;;;;;;4821801;29;20462;-78
2023/03/15 01:35:05;;;;;;;0.20;0.20;;;;;;;;;;4829410;29;20487;-77
2023/03/15 01:37:34;;;;;;;0.20;0.20;;;;;;;;;;4807118;29;20082;-77
2023/03/15 01:40:00;;;;;;;0.20;0.20;;;;;;;;;;4835326;29;20412;-77
2023/03/15 01:42:26;;;;;;;0.20;0.20;;;;;;;;;;4819576;29;20058;-76
2023/03/15 01:44:54;;;;;;;0.20;0.20;;;;;;;;;;4824839;29;20149;-77
2023/03/15 01:49:52;;;;;;;0.10;0.10;;;;;;;;;;4857578;29;20137;-77
2023/03/15 01:52:20;;;;;;;0.20;0.20;;;;;;;;;;4842961;29;20085;-77
2023/03/15 01:54:52;;;;;;;0.20;0.20;;;;;;;;;;4856813;29;20052;-77
2023/03/15 01:57:25;;;;;;;0.17;0.17;;;;;;;;;;4857738;29;20053;-77
2023/03/15 02:00:20;;;;;;;0.20;0.20;;;;;;;;;;4856409;29;20391;-77
2023/03/15 02:02:50;;;;;;;0.20;0.20;;;;;;;;;;4840234;29;20080;-77
2023/03/15 02:05:33;;;;;;;0.20;0.20;;;;;;;;;;4855894;29;20136;-77
2023/03/15 02:08:00;;;;;;;0.20;0.20;;;;;;;;;;4858450;29;20565;-77
2023/03/15 02:10:35;;;;;;;0.20;0.20;;;;;;;;;;4858923;29;20075;-77
2023/03/15 02:13:02;;;;;;;0.20;0.20;;;;;;;;;;4839285;29;20635;-77
2023/03/15 02:15:31;;;;;;;0.20;0.20;;;;;;;;;;4838868;29;20573;-77
2023/03/15 02:17:57;;;;;;;0.20;0.20;;;;;;;;;;4840727;29;20045;-77
2023/03/15 02:20:26;;;;;;;0.20;0.20;;;;;;;;;;4856581;29;20134;-77
2023/03/15 02:22:52;;;;;;;0.10;0.10;;;;;;;;;;4839647;29;20372;-77
2023/03/15 02:25:28;;;;;;;0.15;0.15;;;;;;;;;;4832729;29;20045;-77
2023/03/15 02:27:54;;;;;;;0.20;0.20;;;;;;;;;;4856720;29;20053;-77
2023/03/15 02:30:29;;;;;;;0.15;0.15;;;;;;;;;;4843253;29;20045;-77
2023/03/15 02:33:00;;;;;;;0.20;0.20;;;;;;;;;;4842292;29;20041;-76
2023/03/15 02:35:28;;;;;;;0.20;0.20;;;;;;;;;;4857663;29;20045;-77
2023/03/15 02:37:54;;;;;;;0.20;0.20;;;;;;;;;;4839626;29;20126;-77
2023/03/15 02:40:22;;;;;;;0.20;0.20;;;;;;;;;;4857543;29;20049;-77
2023/03/15 02:42:51;;;;;;;0.20;0.20;;;;;;;;;;4840369;29;20050;-77
2023/03/15 02:45:20;;;;;;;0.20;0.20;;;;;;;;;;4857047;29;20049;-77
2023/03/15 02:47:47;;;;;;;0.20;0.20;;;;;;;;;;4838091;29;20050;-76
2023/03/15 02:50:16;;;;;;;0.20;0.20;;;;;;;;;;4844001;29;20114;-77
2023/03/15 02:52:42;;;;;;;0.20;0.20;;;;;;;;;;4857584;29;20042;-77
2023/03/15 02:55:08;;;;;;;0.20;0.20;;;;;;;;;;4841008;29;20050;-78
2023/03/15 02:57:42;;;;;;;0.20;0.20;;;;;;;;;;4839396;29;20057;-77
2023/03/15 03:00:13;;;;;;;0.20;0.20;;;;;;;;;;4840770;29;20128;-77
2023/03/15 03:02:42;;;;;;;0.20;0.20;;;;;;;;;;4857839;29;20053;-78
2023/03/15 03:05:08;;;;;;;0.20;0.20;;;;;;;;;;4853360;29;20052;-77
2023/03/15 03:07:35;;;;;;;0.20;0.20;;;;;;;;;;4841874;29;20049;-77
2023/03/15 03:10:00;;;;;;;0.20;0.20;;;;;;;;;;4857755;29;20101;-77
2023/03/15 03:12:29;;;;;;;0.20;0.20;;;;;;;;;;4856328;29;20053;-78
2023/03/15 03:14:58;;;;;;;0.20;0.20;;;;;;;;;;4856931;29;20052;-77
2023/03/15 03:17:25;;;;;;;0.20;0.20;;;;;;;;;;4858329;29;20101;-77
2023/03/15 03:19:51;;;;;;;0.20;0.20;;;;;;;;;;4848046;29;20497;-77
2023/03/15 03:22:17;;;;;;;0.20;0.20;;;;;;;;;;4822985;29;20140;-77
2023/03/15 03:24:44;;;;;;;0.20;0.20;;;;;;;;;;4834826;29;20057;-77
2023/03/15 03:27:13;;;;;;;0.20;0.20;;;;;;;;;;4831346;29;20081;-77
2023/03/15 03:29:40;;;;;;;0.20;0.20;;;;;;;;;;4834064;29;20053;-78
2023/03/15 03:32:06;;;;;;;0.20;0.20;;;;;;;;;;4838898;29;20092;-77
2023/03/15 03:34:32;;;;;;;0.20;0.20;;;;;;;;;;4839156;29;20053;-77
2023/03/15 03:36:58;;;;;;;0.20;0.20;;;;;;;;;;4846230;29;20460;-77
2023/03/15 03:39:24;;;;;;;0.20;0.20;;;;;;;;;;4849327;29;20125;-77
2023/03/15 03:41:51;;;;;;;0.20;0.20;;;;;;;;;;4856347;29;20050;-78
2023/03/15 03:44:17;;;;;;;0.20;0.20;;;;;;;;;;4840306;29;20055;-78
2023/03/15 03:46:43;;;;;;;0.20;0.20;;;;;;;;;;4856623;29;20136;-78
2023/03/15 03:49:09;;;;;;;0.20;0.20;;;;;;;;;;4840854;29;20069;-77
2023/03/15 03:51:36;;;;;;;0.20;0.20;;;;;;;;;;4839467;29;20060;-77
2023/03/15 03:54:02;;;;;;;0.20;0.20;;;;;;;;;;4831144;23;20066;-78
2023/03/15 03:56:29;;;;;;;0.20;0.20;;;;;;;;;;4830911;29;20053;-78
2023/03/15 03:58:55;;;;;;;0.20;0.20;;;;;;;;;;4836962;29;20073;-77
2023/03/15 04:01:21;;;;;;;0.20;0.20;;;;;;;;;;4859764;29;20128;-77
2023/03/15 04:03:48;;;;;;;0.20;0.20;;;;;;;;;;4849964;29;20046;-77
2023/03/15 04:06:14;;;;;;;0.20;0.20;;;;;;;;;;4848783;29;20050;-77
2023/03/15 04:08:41;;;;;;;0.20;0.20;;;;;;;;;;4829807;29;20058;-77
2023/03/15 04:11:10;;;;;;;0.20;0.20;;;;;;;;;;4839436;29;20513;-76
2023/03/15 04:13:36;;;;;;;0.20;0.20;;;;;;;;;;4841832;29;20094;-76
2023/03/15 04:16:02;;;;;;;0.20;0.20;;;;;;;;;;4843043;29;20046;-77
2023/03/15 04:18:31;;;;;;;0.20;0.20;;;;;;;;;;4846586;29;20080;-77
2023/03/15 04:20:57;;;;;;;0.20;0.20;;;;;;;;;;4831044;29;20053;-77
2023/03/15 04:23:24;;;;;;;0.20;0.20;;;;;;;;;;4840831;29;20045;-77
2023/03/15 04:25:56;;;;;;;0.20;0.20;;;;;;;;;;4839606;29;20163;-77
2023/03/15 04:28:22;;;;;;;0.20;0.20;;;;;;;;;;4840939;29;20487;-77
2023/03/15 04:30:49;;;;;;;0.20;0.20;;;;;;;;;;4824033;29;20042;-77
2023/03/15 04:33:16;;;;;;;0.20;0.20;;;;;;;;;;4826212;29;20066;-77
2023/03/15 04:35:42;;;;;;;0.20;0.20;;;;;;;;;;4835225;29;20132;-77
2023/03/15 04:38:11;;;;;;;0.20;0.20;;;;;;;;;;4839010;29;20537;-76
2023/03/15 04:40:37;;;;;;;0.20;0.20;;;;;;;;;;4824364;29;20053;-77
2023/03/15 04:43:04;;;;;;;0.20;0.20;;;;;;;;;;4858001;29;20414;-76
2023/03/15 04:45:31;;;;;;;0.20;0.20;;;;;;;;;;4837925;29;20045;-77
2023/03/15 04:47:57;;;;;;;0.20;0.20;;;;;;;;;;4844266;29;20406;-77
2023/03/15 04:50:24;;;;;;;0.20;0.20;;;;;;;;;;4859348;29;20108;-77
2023/03/15 04:52:50;;;;;;;0.20;0.20;;;;;;;;;;4839524;29;20448;-76
2023/03/15 04:55:19;;;;;;;0.20;0.20;;;;;;;;;;4825481;29;20054;-77
2023/03/15 04:57:57;;;;;;;0.15;0.15;;;;;;;;;;4832594;29;20050;-77
2023/03/15 05:00:24;;;;;;;0.10;0.10;;;;;;;;;;4833900;29;20056;-77
2023/03/15 05:02:53;;;;;;;0.20;0.20;;;;;;;;;;4859550;29;20046;-77
2023/03/15 05:05:20;;;;;;;0.20;0.20;;;;;;;;;;4850198;29;20198;-77
2023/03/15 05:07:46;;;;;;;0.20;0.20;;;;;;;;;;4841013;29;20053;-77
2023/03/15 05:10:12;;;;;;;0.20;0.20;;;;;;;;;;4836163;29;20057;-77
2023/03/15 05:12:38;;;;;;;0.20;0.20;;;;;;;;;;4822799;29;20053;-76
2023/03/15 05:15:05;;;;;;;0.10;0.10;;;;;;;;;;4859119;29;20046;-77
2023/03/15 05:17:33;;;;;;;0.20;0.20;;;;;;;;;;4842721;29;20169;-77
2023/03/15 05:20:10;;;;;;;0.10;0.10;;;;;;;;;;4834357;29;20053;-77
2023/03/15 05:22:42;;;;;;;0.20;0.20;;;;;;;;;;4824828;29;20058;-77
2023/03/15 05:25:09;;;;;;;0.15;0.15;;;;;;;;;;4850269;29;20041;-77
2023/03/15 05:27:36;;;;;;;0.20;0.20;;;;;;;;;;4829057;29;20380;-76
2023/03/15 05:30:02;;;;;;;0.20;0.20;;;;;;;;;;4850672;29;20050;-77
2023/03/15 05:32:33;;;;;;;0.20;0.20;;;;;;;;;;4829949;29;20545;-77
2023/03/15 05:35:02;;;;;;;0.17;0.17;;;;;;;;;;4841538;29;20121;-77
2023/03/15 05:37:29;;;;;;;0.20;0.20;;;;;;;;;;4835670;29;20052;-77
2023/03/15 05:39:55;;;;;;;0.20;0.20;;;;;;;;;;4841981;29;20060;-77
2023/03/15 05:42:24;;;;;;;0.13;0.13;;;;;;;;;;4858589;29;20459;-77
2023/03/15 05:44:57;;;;;;;0.20;0.20;;;;;;;;;;4840910;29;20045;-76
2023/03/15 05:47:29;;;;;;;0.20;0.20;;;;;;;;;;4825051;29;20706;-77
2023/03/15 05:49:55;;;;;;;0.20;0.20;;;;;;;;;;4818130;29;20054;-77
2023/03/15 05:52:25;;;;;;;0.13;0.13;;;;;;;;;;4845876;29;20401;-77
2023/03/15 05:54:51;;;;;;;0.20;0.20;;;;;;;;;;4822527;29;20054;-77
2023/03/15 05:57:17;;;;;;;0.20;0.20;;;;;;;;;;4823271;29;20046;-77
2023/03/15 05:59:43;;;;;;;0.20;0.20;;;;;;;;;;4819644;29;20037;-77
2023/03/15 06:02:09;;;;;;;0.20;0.20;;;;;;;;;;4849770;29;20078;-76
2023/03/15 06:04:36;;;;;;;0.10;0.10;;;;;;;;;;4853657;29;20042;-76
2023/03/15 06:07:03;;;;;;;0.20;0.20;;;;;;;;;;4827073;29;20046;-76
2023/03/15 06:09:29;;;;;;;0.20;0.20;;;;;;;;;;4852661;29;20045;-77
2023/03/15 06:11:57;;;;;;;0.20;0.20;;;;;;;;;;4856503;29;20109;-76
2023/03/15 06:14:24;;;;;;;0.20;0.20;;;;;;;;;;4841045;29;20133;-77
2023/03/15 06:16:50;;;;;;;0.20;0.20;;;;;;;;;;4827637;29;20145;-76
2023/03/15 06:19:16;;;;;;;0.20;0.20;;;;;;;;;;4842775;29;20677;-76
2023/03/15 06:21:42;;;;;;;0.20;0.20;;;;;;;;;;4841332;29;20057;-77
2023/03/15 06:24:08;;;;;;;0.17;0.17;;;;;;;;;;4842289;29;20792;-77
2023/03/15 06:26:34;;;;;;;0.20;0.20;;;;;;;;;;4850877;29;20556;-77
2023/03/15 06:29:00;;;;;;;0.20;0.20;;;;;;;;;;4822098;29;20207;-77
2023/03/15 06:31:26;;;;;;;0.20;0.20;;;;;;;;;;4835310;29;20054;-76
2023/03/15 06:33:55;;;;;;;0.20;0.20;;;;;;;;;;4821868;29;20042;-76
2023/03/15 06:36:22;;;;;;;0.20;0.20;;;;;;;;;;4818572;29;20330;-76
2023/03/15 06:38:53;;;;;;;0.20;0.20;;;;;;;;;;4842176;29;20046;-76
2023/03/15 06:41:20;;;;;;;0.10;0.10;;;;;;;;;;4825982;29;20373;-76
2023/03/15 06:43:46;;;;;;;0.20;0.20;;;;;;;;;;4835079;29;20056;-76
2023/03/15 06:46:12;;;;;;;0.20;0.20;;;;;;;;;;4840744;29;20065;-77
2023/03/15 06:48:38;;;;;;;0.20;0.20;;;;;;;;;;4839560;29;20045;-76
2023/03/15 06:51:08;;;;;;;0.20;0.20;;;;;;;;;;4822488;29;20068;-77
2023/03/15 06:53:34;;;;;;;0.20;0.20;;;;;;;;;;4839107;29;20085;-76
2023/03/15 06:56:02;;;;;;;0.20;0.20;;;;;;;;;;4822843;29;20407;-76
2023/03/15 06:58:29;;;;;;;0.20;0.20;;;;;;;;;;4842333;29;20068;-76
2023/03/15 07:00:55;;;;;;;0.20;0.20;;;;;;;;;;4843879;29;20058;-76
2023/03/15 07:03:22;;;;;;;0.20;0.20;;;;;;;;;;4822055;29;20126;-76
2023/03/15 07:05:51;;;;;;;0.10;0.10;;;;;;;;;;4823703;29;20089;-76
2023/03/15 07:08:18;;;;;;;0.20;0.20;;;;;;;;;;4821784;29;20050;-81
2023/03/15 07:10:45;;;;;;;0.20;0.20;;;;;;;;;;4833947;29;20053;-81
2023/03/15 07:13:12;;;;;;;0.10;0.10;;;;;;;;;;4821460;29;20061;-81
2023/03/15 07:15:38;;;;;;;0.20;0.20;;;;;;;;;;4850829;29;20053;-81
2023/03/15 07:18:04;;;;;;;0.20;0.20;;;;;;;;;;4840704;29;20164;-80
2023/03/15 07:20:30;;;;;;;0.20;0.20;;;;;;;;;;4824204;29;20062;-81
2023/03/15 07:22:56;;;;;;;0.10;0.10;;;;;;;;;;4830476;29;20085;-81
2023/03/15 07:25:24;;;;;;;0.20;0.20;;;;;;;;;;4839802;29;20052;-82
2023/03/15 07:27:50;;;;;;;0.20;0.20;;;;;;;;;;4821199;29;20483;-81
2023/03/15 07:30:20;;;;;;;0.20;0.20;;;;;;;;;;4832972;29;20045;-81
2023/03/15 07:32:46;;;;;;;0.20;0.20;;;;;;;;;;4845826;29;20054;-81
2023/03/15 07:35:12;;;;;;;0.20;0.20;;;;;;;;;;4821743;29;20054;-82
2023/03/15 07:37:39;;;;;;;0.20;0.20;;;;;;;;;;4834763;29;20486;-83
2023/03/15 07:40:08;;;;;;;0.20;0.20;;;;;;;;;;4836576;29;20058;-82
2023/03/15 07:42:41;;;;;;;0.20;0.20;;;;;;;;;;4822397;29;20300;-81
2023/03/15 07:45:08;;;;;;;0.20;0.20;;;;;;;;;;4821739;29;20054;-81
2023/03/15 07:47:35;;;;;;;0.20;0.20;;;;;;;;;;4838796;29;20117;-81
2023/03/15 07:50:01;;;;;;;0.20;0.20;;;;;;;;;;4823152;29;20046;-83
2023/03/15 07:52:30;;;;;;;0.20;0.20;;;;;;;;;;4822202;29;20097;-81
2023/03/15 07:54:56;;;;;;;0.20;0.20;;;;;;;;;;4830591;29;20105;-80
2023/03/15 07:57:22;;;;;;;0.20;0.20;;;;;;;;;;4831894;29;20046;-82
2023/03/15 07:59:48;;;;;;;0.20;0.20;;;;;;;;;;4838270;29;20100;-83
2023/03/15 08:02:14;;;;;;;0.20;0.20;;;;;;;;;;4825724;29;20046;-82
2023/03/15 08:04:41;;;;;;;0.20;0.20;;;;;;;;;;4823214;29;20163;-79
2023/03/15 08:07:07;;;;;;;0.15;0.15;;;;;;;;;;4833513;29;20054;-82
2023/03/15 08:09:33;;;;;;;0.20;0.20;;;;;;;;;;4824095;29;20527;-83
2023/03/15 08:12:00;;;;;;;0.20;0.20;;;;;;;;;;4821535;29;20080;-82
2023/03/15 08:14:26;;;;;;;0.20;0.20;;;;;;;;;;4820887;29;20132;-82
2023/03/15 08:16:52;;;;;;;0.20;0.20;;;;;;;;;;4840630;29;20107;-84
2023/03/15 08:19:21;;;;;;;0.10;0.10;;;;;;;;;;4825212;29;20437;-83
2023/03/15 08:21:47;;;;;;;0.20;0.20;;;;;;;;;;4826033;29;20050;-82
2023/03/15 08:24:14;;;;;;;0.20;0.20;;;;;;;;;;4839516;29;20444;-83
2023/03/15 08:26:42;;;;;;;0.20;0.20;;;;;;;;;;4834478;29;20137;-83
2023/03/15 08:29:08;;;;;;;0.20;0.20;;;;;;;;;;4835045;29;20057;-83
2023/03/15 08:31:34;;;;;;;0.20;0.20;;;;;;;;;;4850993;29;20050;-84
2023/03/15 08:34:00;;;;;;;0.20;0.20;;;;;;;;;;4821258;29;20103;-80
2023/03/15 08:36:26;;;;;;;0.20;0.20;;;;;;;;;;4826395;29;20626;-82
2023/03/15 08:38:52;;;;;;;0.10;0.10;;;;;;;;;;4828549;29;20054;-83
2023/03/15 08:41:18;;;;;;;0.20;0.20;;;;;;;;;;4812559;29;20102;-83
2023/03/15 08:43:44;;;;;;;0.20;0.20;;;;;;;;;;4830931;29;20049;-84
2023/03/15 08:46:11;;;;;;;0.20;0.20;;;;;;;;;;4813057;29;20110;-83
2023/03/15 08:48:37;;;;;;;0.20;0.20;;;;;;;;;;4817755;29;20735;-82
2023/03/15 08:51:07;;;;;;;0.20;0.20;;;;;;;;;;4826212;29;20512;-82
2023/03/15 08:53:33;;;;;;;0.20;0.20;;;;;;;;;;4817789;29;20049;-83
2023/03/15 08:56:06;;;;;;;0.20;0.20;;;;;;;;;;4831644;29;20946;-82
2023/03/15 08:58:47;;;;;;;0.20;0.20;;;;;;;;;;4834263;29;20054;-83
2023/03/15 09:01:13;;;;;;;0.20;0.20;;;;;;;;;;4818439;29;20068;-83
2023/03/15 09:03:41;;;;;;;0.20;0.20;;;;;;;;;;4837007;29;20049;-82
2023/03/15 09:06:08;;;;;;;0.20;0.20;;;;;;;;;;4817560;29;20058;-82
2023/03/15 09:08:34;;;;;;;0.20;0.20;;;;;;;;;;4821668;29;20424;-83
2023/03/15 09:11:01;;;;;;;0.15;0.15;;;;;;;;;;4838383;29;20514;-83
2023/03/15 09:13:55;;;;;;;0.20;0.20;;;;;;;;;;4955097;23;20065;-84
2023/03/15 09:16:46;;;;;;;0.20;0.20;;;;;;;;;;4833304;29;20098;-82
2023/03/15 09:19:41;;;;;;;0.15;0.15;;;;;;;;;;4841057;29;20061;-83
2023/03/15 09:22:11;;;;;;;0.20;0.20;;;;;;;;;;4811433;29;20543;-83
2023/03/15 09:24:56;;;;;;;0.20;0.20;;;;;;;;;;4840117;29;20045;-82
2023/03/15 09:27:22;;;;;;;0.20;0.20;;;;;;;;;;4824256;29;20057;-84
2023/03/15 09:32:58;;;;;;;0.20;0.20;;;;;;;;;;4820041;29;20053;-84
2023/03/15 09:38:02;;;;;;;0.20;0.20;;;;;;;;;;4822185;23;20107;-82
2023/03/15 09:40:30;;;;;;;0.20;0.20;;;;;;;;;;4825648;29;20064;-81
2023/03/15 09:43:05;;;;;;;0.15;0.15;;;;;;;;;;4815740;29;20043;-82
2023/03/15 09:45:50;;;;;;;0.20;0.20;;;;;;;;;;4811580;29;20058;-84
2023/03/15 09:48:25;;;;;;;0.20;0.20;;;;;;;;;;4809677;29;20054;-80
2023/03/15 09:51:16;;;;;;;0.20;0.20;;;;;;;;;;4802460;29;20046;-81
2023/03/15 09:54:19;;;;;;;0.20;0.20;;;;;;;;;;4788203;29;20388;-84
2023/03/15 09:56:53;;;;;;;0.20;0.20;;;;;;;;;;4814812;29;20203;-82
2023/03/15 09:59:21;;;;;;;0.20;0.20;;;;;;;;;;4818279;29;20110;-82
2023/03/15 10:02:21;;;;;;;0.13;0.13;;;;;;;;;;4797523;29;20054;-85
2023/03/15 10:05:18;;;;;;;0.20;0.20;;;;;;;;;;4805701;29;20058;-81
2023/03/15 10:07:45;;;;;;;0.20;0.20;;;;;;;;;;4829774;23;20211;-82
2023/03/15 10:10:22;;;;;;;0.10;0.10;;;;;;;;;;4839529;29;20185;-83
2023/03/15 10:13:02;;;;;;;0.20;0.20;;;;;;;;;;4833380;29;20056;-82
2023/03/15 10:15:32;;;;;;;0.13;0.13;;;;;;;;;;4841808;29;20054;-83
2023/03/15 10:17:58;;;;;;;0.20;0.20;;;;;;;;;;4852598;29;20086;-83
2023/03/15 10:20:35;;;;;;;0.20;0.20;;;;;;;;;;4857679;29;20085;-82
2023/03/15 10:23:21;;;;;;;0.20;0.20;;;;;;;;;;4839127;29;20099;-83
2023/03/15 10:25:50;;;;;;;0.20;0.20;;;;;;;;;;4832189;29;20049;-83
2023/03/15 10:28:36;;;;;;;0.13;0.13;;;;;;;;;;4821527;29;20092;-83
2023/03/15 10:31:09;;;;;;;0.20;0.20;;;;;;;;;;4849093;29;20563;-83
2023/03/15 10:33:43;;;;;;;0.10;0.10;;;;;;;;;;4840221;29;20389;-83
2023/03/15 10:36:19;;;;;;;0.20;0.20;;;;;;;;;;4825396;29;20057;-84
2023/03/15 10:38:47;;;;;;;0.13;0.13;;;;;;;;;;4820657;29;20076;-83
2023/03/15 10:41:28;;;;;;;0.20;0.20;;;;;;;;;;4839324;29;20110;-84
2023/03/15 10:44:02;;;;;;;0.20;0.20;;;;;;;;;;4840441;29;20081;-84
2023/03/15 10:46:28;;;;;;;0.20;0.20;;;;;;;;;;4839857;29;20115;-83
2023/03/15 10:48:59;;;;;;;0.20;0.20;;;;;;;;;;4822227;29;20498;-84
2023/03/15 10:51:30;;;;;;;0.20;0.20;;;;;;;;;;4839650;29;20553;-84
2023/03/15 10:54:01;;;;;;;0.20;0.20;;;;;;;;;;4823743;29;20098;-84
2023/03/15 10:56:30;;;;;;;0.10;0.10;;;;;;;;;;4828640;29;20141;-84
2023/03/15 10:58:57;;;;;;;0.10;0.10;;;;;;;;;;4826852;29;20426;-82
2023/03/15 11:01:27;;;;;;;0.10;0.10;;;;;;;;;;4822509;29;20083;-83
2023/03/15 11:04:01;;;;;;;0.10;0.10;;;;;;;;;;4821676;29;20142;-79
2023/03/15 11:06:27;;;;;;;0.10;0.10;;;;;;;;;;4827877;29;20053;-84
2023/03/15 11:09:13;;;;;;;0.20;0.20;;;;;;;;;;4837500;29;20132;-82
2023/03/15 11:12:08;;;;;;;0.20;0.20;;;;;;;;;;4836829;29;20056;-83
2023/03/15 11:14:37;;;;;;;0.13;0.13;;;;;;;;;;4828546;29;20462;-83
2023/03/15 11:17:04;;;;;;;0.17;0.17;;;;;;;;;;4822705;29;20054;-83
2023/03/15 11:19:40;;;;;;;0.20;0.20;;;;;;;;;;4840202;29;20069;-83
2023/03/15 11:22:10;;;;;;;0.20;0.20;;;;;;;;;;4822391;29;20392;-83
2023/03/15 11:24:36;;;;;;;0.20;0.20;;;;;;;;;;4823047;29;20137;-82
2023/03/15 11:27:04;;;;;;;0.20;0.20;;;;;;;;;;4833201;29;20053;-80
2023/03/15 11:29:34;;;;;;;0.20;0.20;;;;;;;;;;4830716;29;20050;-84
2023/03/15 11:32:01;;;;;;;0.10;0.10;;;;;;;;;;4836187;29;20324;-82
2023/03/15 11:34:43;;;;;;;0.10;0.10;;;;;;;;;;4838953;23;20057;-81
2023/03/15 11:37:17;;;;;;;0.10;0.10;;;;;;;;;;4810881;29;20093;-82
2023/03/15 11:39:52;;;;;;;0.20;0.20;;;;;;;;;;4820711;29;20061;-82
2023/03/15 11:42:37;;;;;;;0.20;0.20;;;;;;;;;;4809666;29;20121;-82
2023/03/15 11:45:48;;;;;;;0.15;0.15;;;;;;;;;;4822331;29;20060;-83
2023/03/15 11:48:28;;;;;;;0.10;0.10;;;;;;;;;;4828975;29;20069;-83
2023/03/15 11:50:55;;;;;;;0.20;0.20;;;;;;;;;;4833394;29;20062;-82
2023/03/15 11:53:23;;;;;;;0.20;0.20;;;;;;;;;;4816258;29;20056;-83
2023/03/15 11:55:53;;;;;;;0.10;0.10;;;;;;;;;;4831473;29;20034;-82
2023/03/15 11:58:33;;;;;;;0.10;0.10;;;;;;;;;;4827690;29;20133;-82
2023/03/15 12:01:19;;;;;;;0.10;0.10;;;;;;;;;;4824006;29;20512;-84
2023/03/15 12:03:49;;;;;;;0.10;0.10;;;;;;;;;;4795777;29;20066;-82
2023/03/15 12:06:18;;;;;;;0.10;0.10;;;;;;;;;;4783432;29;20129;-82
2023/03/15 12:09:10;;;;;;;0.10;0.10;;;;;;;;;;4820674;29;20330;-82
2023/03/15 12:11:50;;;;;;;0.20;0.20;;;;;;;;;;4778715;29;20104;-82
2023/03/15 12:14:27;;;;;;;0.20;0.20;;;;;;;;;;4784510;29;20035;-83
2023/03/15 12:17:12;;;;;;;0.10;0.10;;;;;;;;;;4775322;29;20457;-84
2023/03/15 12:19:38;;;;;;;0.20;0.20;;;;;;;;;;4802644;29;20115;-80
2023/03/15 12:22:19;;;;;;;0.10;0.10;;;;;;;;;;4792180;29;20054;-83
2023/03/15 12:24:51;;;;;;;0.10;0.10;;;;;;;;;;4819184;29;20038;-84
2023/03/15 12:27:29;;;;;;;0.20;0.20;;;;;;;;;;4815619;29;20052;-82
2023/03/15 12:30:16;;;;;;;0.20;0.20;;;;;;;;;;4833860;29;20049;-83
2023/03/15 12:32:46;;;;;;;0.10;0.10;;;;;;;;;;4825587;29;20081;-82
2023/03/15 12:35:18;;;;;;;0.20;0.20;;;;;;;;;;4811178;29;20054;-84
2023/03/15 12:37:46;;;;;;;0.10;0.10;;;;;;;;;;4804746;29;20140;-83
2023/03/15 12:40:15;;;;;;;0.10;0.10;;;;;;;;;;4809297;29;20052;-82
2023/03/15 12:42:41;;;;;;;0.20;0.20;;;;;;;;;;4807750;29;20316;-81
2023/03/15 12:45:19;;;;;;;0.20;0.20;;;;;;;;;;4807054;29;20061;-82
2023/03/15 12:47:46;;;;;;;0.17;0.17;;;;;;;;;;4800683;29;20058;-82
2023/03/15 12:50:31;;;;;;;0.10;0.10;;;;;;;;;;4806980;29;20062;-82
2023/03/15 12:52:59;;;;;;;0.10;0.10;;;;;;;;;;4815518;29;20403;-82
2023/03/15 12:55:28;;;;;;;0.10;0.10;;;;;;;;;;4819167;29;20062;-83
2023/03/15 12:57:58;;;;;;;0.20;0.20;;;;;;;;;;4823355;23;20059;-81
2023/03/15 13:00:32;;;;;;;0.15;0.15;;;;;;;;;;4826590;29;20137;-83
2023/03/15 13:03:23;;;;;;;0.10;0.10;;;;;;;;;;4806487;29;20065;-84
2023/03/15 13:05:55;;;;;;;0.10;0.10;;;;;;;;;;4821007;29;20518;-82
2023/03/15 13:08:40;;;;;;;0.20;0.20;;;;;;;;;;4833850;29;20839;-82
2023/03/15 13:11:19;;;;;;;0.10;0.10;;;;;;;;;;4815208;29;20120;-82
2023/03/15 13:13:54;;;;;;;0.20;0.20;;;;;;;;;;4827917;29;20060;-82
2023/03/15 13:16:39;;;;;;;0.20;0.20;;;;;;;;;;4833759;29;20360;-83
2023/03/15 13:19:23;;;;;;;0.20;0.20;;;12.20;96.70;;;;;;4816445;29;20049;-81
2023/03/15 13:22:26;;;;;;;0.20;0.20;;;11.90;97.10;;;;;;4818884;29;20050;-83
2023/03/15 13:25:47;;;;;;;0.20;0.20;;;12.60;97.00;;;;;;4815904;29;20053;-82
2023/03/15 13:28:50;;;;;;;0.20;0.20;;;12.90;95.90;;;;;;4839704;29;20094;-82
2023/03/15 13:31:22;;;;;;;0.20;0.20;;;13.40;96.20;;;;;;4839611;29;20042;-83
2023/03/15 13:33:55;;;;;;;0.20;0.20;;;14.10;97.80;;;;;;4841585;29;20401;-82
2023/03/15 13:36:43;;;;;;;0.20;0.20;;;14.80;95.00;;;;;;4838517;29;20042;-82
2023/03/15 13:39:24;;;;;;;0.20;0.20;;;15.60;97.40;;;;;;4840289;29;20049;-82
2023/03/15 13:42:02;;;;;;;0.20;0.20;;;16.90;96.80;;;;;;4822015;29;20050;-82
2023/03/15 13:44:29;;;;;;;0.20;0.20;;;;;;;;;;4839551;29;20099;-82
2023/03/15 13:47:04;;;;;;;0.20;0.20;;;;;;;;;;4823670;29;20050;-82
2023/03/15 13:49:34;;;;;;;0.20;0.20;;;;;;;;;;4811776;29;20133;-81
2023/03/15 13:52:04;;;;;;;0.20;0.20;;;;;;;;;;4814534;23;20050;-79
2023/03/15 13:54:33;;;;;;;0.20;0.20;;;;;;;;;;4858053;29;20054;-81
2023/03/15 13:57:13;;;;;;;0.17;0.17;;;21.70;99.90;;;;;;4830188;29;20056;-81
2023/03/15 14:00:09;;;;;;;0.20;0.20;;;22.60;79.10;;;;;;4857150;29;20538;-80
2023/03/15 14:02:57;;;;;;;0.20;0.20;;;23.40;81.90;;;;;;4841631;29;20061;-81
2023/03/15 14:05:56;;;;;;;0.20;0.20;;;24.10;74.30;;;;;;4863128;29;20316;-82
2023/03/15 14:08:30;;;;;;;0.20;0.20;;;24.50;69.40;;;;;;4838231;29;20046;-81
2023/03/15 14:11:37;;;;;;;0.20;0.20;;;24.30;68.70;;;;;;4841002;29;20050;-80
2023/03/15 14:14:28;;;;;;;0.20;0.20;;;24.00;67.50;;;;;;4858587;29;20053;-80
2023/03/15 14:16:57;;;;;;;0.25;0.25;;;23.20;64.20;;;;;;4830649;29;20110;-80
2023/03/15 14:19:24;;;;;;;0.20;0.20;;;;;;;;;;4857075;29;20048;-79
2023/03/15 14:21:52;;;;;;;0.20;0.20;;;;;;;;;;4858450;29;20467;-80
2023/03/15 14:24:22;;;;;;;0.20;0.20;;;;;;;;;;4859201;29;20122;-82
2023/03/15 14:26:53;;;;;;;0.20;0.20;;;;;;;;;;4831605;29;20117;-82
2023/03/15 14:29:29;;;;;;;0.20;0.20;;;;;;;;;;4859346;29;20067;-81
2023/03/15 14:32:00;;;;;;;0.15;0.15;;;;;;;;;;4841457;29;20045;-81
2023/03/15 14:34:35;;;;;;;0.20;0.20;;;;;;;;;;4842410;29;20054;-81
2023/03/15 14:37:04;;;;;;;0.20;0.20;;;;;;;;;;4854969;29;20121;-81
2023/03/15 14:39:40;;;;;;;0.20;0.20;;;;;;;;;;4849918;29;20050;-82
2023/03/15 14:42:10;;;;;;;0.20;0.20;;;;;;;;;;4835301;29;20061;-81
2023/03/15 14:44:36;;;;;;;0.20;0.20;;;;;;;;;;4842576;29;20097;-81
2023/03/15 14:47:15;;;;;;;0.20;0.20;;;22.50;63.90;;;;;;4859510;29;20060;-80
2023/03/15 14:49:41;;;;;;;0.20;0.20;;;22.40;61.80;;;;;;4841680;29;20049;-80
2023/03/15 14:52:31;;;;;;;0.20;0.20;;;22.40;61.80;;;;;;4838674;29;20579;-81
2023/03/15 14:54:57;;;;;;;0.20;0.20;;;22.20;57.60;;;;;;4827938;29;20057;-81
2023/03/15 14:57:23;;;;;;;0.20;0.20;;;22.00;56.30;;;;;;4838431;29;20172;-79
2023/03/15 14:59:49;;;;;;;0.10;0.10;;;;;;;;;;4854665;29;20090;-80
2023/03/15 15:02:17;;;;;;;0.20;0.20;;;;;;;;;;4860017;29;20046;-81
2023/03/15 15:04:46;;;;;;;0.20;0.20;;;;;;;;;;4858322;29;20042;-81
2023/03/15 15:07:13;;;;;;;0.20;0.20;;;;;;;;;;4853181;29;20396;-80